Time;durP1;ratioP1;P1;durP2;ratioP2;P2;SDS_P1;SDS_P2;PMS_P1;PMS_P2;Temp;Humidity;BMP_temperature;BMP_pressure;BME280_temperature;BME280_humidity;BME280_pressure;Samples;Min_cycle;Max_cycle;Signal;HPM_P1;HPM_P2
2022/08/01 00:00:11;;;;;;;1.17;1.15;;;20.00;1.40;;;21.09;100.00;95415.80;644830;216;31598;-70
2022/08/01 00:02:53;;;;;;;1.80;1.30;;;20.10;1.40;;;21.19;100.00;95413.37;650537;216;32073;-70
2022/08/01 00:05:35;;;;;;;1.40;1.30;;;20.10;1.40;;;21.08;100.00;95420.44;650643;213;31581;-70
2022/08/01 00:08:20;;;;;;;1.00;0.90;;;20.00;1.40;;;20.93;100.00;95422.48;650443;216;31561;-70
2022/08/01 00:11:01;;;;;;;3.00;1.77;;;19.90;1.40;;;20.86;100.00;95423.13;644582;216;31853;-70
2022/08/01 00:13:43;;;;;;;1.60;1.50;;;19.80;1.40;;;20.95;100.00;95425.50;647997;216;31552;-71
2022/08/01 00:16:28;;;;;;;1.10;1.10;;;19.80;1.40;;;20.93;100.00;95423.44;638768;216;33726;-71
2022/08/01 00:19:12;;;;;;;1.30;1.20;;;19.80;1.40;;;20.85;100.00;95420.08;619522;226;32202;-70
2022/08/01 00:21:56;;;;;;;1.30;1.20;;;19.80;1.40;;;20.89;100.00;95424.14;621336;226;31974;-71
2022/08/01 00:24:38;;;;;;;1.10;1.00;;;19.80;1.40;;;20.78;100.00;95420.61;618951;226;31900;-71
2022/08/01 00:27:20;;;;;;;1.62;1.52;;;19.70;1.40;;;20.77;100.00;95419.25;649291;212;31523;-71
2022/08/01 00:30:02;;;;;;;1.30;1.20;;;19.70;1.40;;;20.75;100.00;95423.94;649727;216;33124;-70
2022/08/01 00:32:43;;;;;;;1.50;1.40;;;19.70;1.40;;;20.69;100.00;95427.05;646682;212;31490;-70
2022/08/01 00:35:51;;;;;;;1.50;1.30;;;19.60;1.40;;;20.54;100.00;95428.58;647428;216;31777;-71
2022/08/01 00:38:33;;;;;;;1.80;1.42;;;19.50;1.40;;;20.68;100.00;95429.41;650011;216;31853;-72
2022/08/01 00:41:14;;;;;;;2.03;1.27;;;19.60;1.40;;;20.59;100.00;95428.46;649670;212;31497;-70
2022/08/01 00:43:56;;;;;;;1.40;1.30;;;19.50;1.40;;;20.57;100.00;95424.92;633638;221;32055;-70
2022/08/01 00:46:38;;;;;;;1.48;1.37;;;19.50;1.40;;;20.61;100.00;95428.12;646947;216;31572;-71
2022/08/01 00:49:19;;;;;;;2.37;1.62;;;19.60;1.40;;;20.55;100.00;95434.77;647213;216;31649;-71
2022/08/01 00:52:01;;;;;;;1.42;1.33;;;19.50;1.40;;;20.60;100.00;95431.27;644783;212;32104;-71
2022/08/01 00:54:43;;;;;;;2.40;1.40;;;19.60;1.40;;;20.55;100.00;95431.05;645538;212;31515;-70
2022/08/01 00:57:25;;;;;;;1.30;1.20;;;19.40;1.40;;;20.35;100.00;95426.88;649684;212;31554;-70
2022/08/01 01:00:08;;;;;;;1.70;1.58;;;19.20;1.40;;;20.28;100.00;95428.73;616367;226;31987;-71
2022/08/01 01:02:49;;;;;;;1.33;1.20;;;19.10;1.40;;;20.17;100.00;95428.28;645558;212;31580;-71
2022/08/01 01:05:31;;;;;;;1.40;1.30;;;19.10;1.40;;;20.10;100.00;95429.56;643075;216;31521;-70
2022/08/01 01:08:13;;;;;;;1.50;1.40;;;19.00;1.40;;;19.97;100.00;95429.02;649174;212;31535;-70
2022/08/01 01:10:55;;;;;;;1.92;1.48;;;18.90;99.90;;;19.75;100.00;95432.86;650677;212;31569;-70
2022/08/01 01:13:46;;;;;;;1.80;1.30;;;18.60;1.40;;;19.70;100.00;95436.39;645268;212;31574;-70
2022/08/01 01:16:28;;;;;;;1.50;1.40;;;18.60;1.40;;;19.63;100.00;95432.91;636910;212;32197;-69
2022/08/01 01:19:10;;;;;;;1.77;1.58;;;18.50;1.40;;;19.61;100.00;95435.60;649636;212;31589;-70
2022/08/01 01:22:13;;;;;;;2.95;1.30;;;18.50;1.40;;;19.50;100.00;95437.84;647427;216;31621;-69
2022/08/01 01:24:59;;;;;;;1.85;1.20;;;18.40;1.40;;;19.48;100.00;95439.47;651482;216;31506;-70
2022/08/01 01:30:18;;;;;;;2.95;1.30;;;18.30;1.40;;;19.41;100.00;95442.25;648558;216;42132;-71
2022/08/01 01:33:01;;;;;;;1.60;1.50;;;18.30;1.40;;;19.34;100.00;95443.95;647005;216;31913;-70
2022/08/01 01:35:50;;;;;;;1.80;1.70;;;18.20;1.40;;;19.30;100.00;95443.48;648232;212;31665;-70
2022/08/01 01:38:37;;;;;;;3.28;1.50;;;18.20;1.40;;;19.32;100.00;95442.08;644116;212;31507;-70
2022/08/01 01:41:19;;;;;;;2.00;1.80;;;18.30;1.40;;;19.35;100.00;95440.98;654020;216;32044;-70
2022/08/01 01:44:01;;;;;;;1.98;1.20;;;18.30;1.40;;;19.39;100.00;95440.98;648826;212;31530;-70
2022/08/01 01:46:45;;;;;;;1.40;1.30;;;18.40;1.40;;;19.32;100.00;95437.83;646169;216;31517;-70
2022/08/01 01:49:27;;;;;;;1.70;1.48;;;18.30;1.40;;;19.38;100.00;95441.77;646083;216;31570;-71
2022/08/01 01:52:09;;;;;;;1.65;1.40;;;18.40;1.40;;;19.46;100.00;95443.84;646039;216;32269;-70
2022/08/01 01:54:50;;;;;;;2.70;1.45;;;18.50;1.40;;;19.60;100.00;95444.36;646759;216;31570;-71
2022/08/01 01:57:32;;;;;;;1.43;1.10;;;18.60;1.40;;;19.67;100.00;95440.83;644887;212;31549;-70
2022/08/01 02:00:14;;;;;;;3.30;1.60;;;18.70;1.40;;;19.74;100.00;95444.16;649182;212;31568;-71
2022/08/01 02:02:56;;;;;;;1.48;1.37;;;18.80;1.40;;;19.78;100.00;95445.34;651018;216;31538;-70
2022/08/01 02:05:38;;;;;;;1.80;1.30;;;18.80;1.40;;;19.83;100.00;95446.86;649477;216;31564;-71
2022/08/01 02:08:19;;;;;;;1.98;1.20;;;18.70;1.40;;;19.88;100.00;95448.98;614718;228;31918;-70
2022/08/01 02:13:56;;;;;;;3.40;1.10;;;18.80;1.40;;;19.80;100.00;95448.55;645934;216;42843;-71
2022/08/01 02:16:41;;;;;;;1.30;1.20;;;18.80;1.40;;;19.74;100.00;95453.00;647409;216;31534;-69
2022/08/01 02:19:23;;;;;;;1.10;1.10;;;18.60;1.40;;;19.60;100.00;95451.62;647850;216;42741;-70
2022/08/01 02:22:08;;;;;;;1.40;1.30;;;18.40;1.40;;;19.49;100.00;95455.30;634313;222;42399;-70
2022/08/01 02:24:51;;;;;;;1.50;1.30;;;18.20;1.40;;;19.39;100.00;95458.27;648587;216;31558;-70
2022/08/01 02:27:35;;;;;;;1.53;1.40;;;18.20;1.40;;;19.36;100.00;95459.42;646664;212;31656;-70
2022/08/01 02:30:17;;;;;;;1.70;1.40;;;18.10;1.40;;;19.34;100.00;95462.48;648796;216;31469;-71
2022/08/01 02:33:01;;;;;;;1.52;1.40;;;18.00;1.40;;;19.22;100.00;95460.28;644422;216;31531;-70
2022/08/01 02:35:51;;;;;;;1.10;1.00;;;17.90;1.40;;;19.10;100.00;95459.23;648887;216;32028;-70
2022/08/01 02:38:32;;;;;;;1.50;1.40;;;17.90;1.40;;;19.02;100.00;95458.67;620248;226;31893;-70
2022/08/01 02:41:14;;;;;;;1.50;1.30;;;17.70;1.40;;;18.98;100.00;95455.95;651392;216;31512;-70
2022/08/01 02:43:55;;;;;;;1.17;1.08;;;17.80;1.40;;;18.98;100.00;95457.69;650492;216;33265;-70
2022/08/01 02:46:37;;;;;;;1.60;1.10;;;17.70;1.40;;;18.85;100.00;95456.30;617128;222;42688;-70
2022/08/01 02:49:19;;;;;;;1.27;1.17;;;17.50;1.40;;;18.77;100.00;95456.44;645727;212;42171;-70
2022/08/01 02:52:05;;;;;;;1.70;1.30;;;17.50;1.40;;;18.82;100.00;95461.99;648240;216;31643;-70
2022/08/01 02:54:46;;;;;;;1.23;1.12;;;17.60;1.40;;;18.87;100.00;95462.16;646732;216;31568;-70
2022/08/01 02:57:28;;;;;;;1.42;1.20;;;17.80;1.40;;;18.97;100.00;95466.18;648574;212;31585;-70
2022/08/01 03:00:11;;;;;;;1.55;1.37;;;17.90;1.40;;;19.03;100.00;95469.55;629959;222;31717;-70
2022/08/01 03:02:54;;;;;;;1.45;1.35;;;18.00;1.40;;;19.02;100.00;95466.17;648811;216;32541;-71
2022/08/01 03:05:35;;;;;;;2.80;1.60;;;17.90;1.40;;;19.04;100.00;95466.13;654662;212;31540;-73
2022/08/01 03:08:16;;;;;;;0.97;0.80;;;17.90;1.40;;;19.00;100.00;95468.69;651355;212;31666;-70
2022/08/01 03:10:58;;;;;;;2.00;1.80;;;18.00;1.40;;;18.98;100.00;95467.45;651896;216;31988;-70
2022/08/01 03:13:40;;;;;;;1.30;1.20;;;17.90;1.40;;;19.02;100.00;95466.87;647359;216;31485;-71
2022/08/01 03:16:22;;;;;;;1.55;1.15;;;17.90;1.40;;;19.16;100.00;95471.30;636626;216;31688;-71
2022/08/01 03:19:06;;;;;;;2.40;1.20;;;18.10;1.40;;;19.19;100.00;95472.25;643817;212;32066;-70
2022/08/01 03:21:48;;;;;;;2.40;1.42;;;18.20;1.40;;;19.14;100.00;95474.70;648003;216;31535;-71
2022/08/01 03:24:33;;;;;;;1.70;1.15;;;18.10;1.40;;;19.06;100.00;95472.23;646389;212;33717;-71
2022/08/01 03:27:14;;;;;;;1.90;1.10;;;18.00;1.40;;;18.98;100.00;95475.98;621686;226;31805;-71
2022/08/01 03:29:56;;;;;;;1.45;1.35;;;17.90;1.40;;;18.83;100.00;95478.11;651336;212;31519;-72
2022/08/01 03:32:38;;;;;;;4.03;1.10;;;17.80;1.40;;;18.88;100.00;95476.09;646329;212;32395;-70
2022/08/01 03:35:54;;;;;;;1.20;1.10;;;17.80;1.40;;;18.83;100.00;95473.37;654835;216;31900;-70
2022/08/01 03:38:36;;;;;;;2.00;1.50;;;17.80;1.40;;;18.90;100.00;95476.75;647642;216;31518;-70
2022/08/01 03:41:17;;;;;;;1.50;1.40;;;17.90;1.40;;;18.83;100.00;95479.95;643819;215;31512;-70
2022/08/01 03:44:03;;;;;;;1.10;1.00;;;17.80;1.40;;;18.78;100.00;95479.59;653148;216;32144;-70
2022/08/01 03:46:45;;;;;;;1.40;1.30;;;17.80;1.40;;;18.70;100.00;95478.16;650881;216;31442;-70
2022/08/01 03:49:30;;;;;;;1.80;1.60;;;17.70;1.40;;;18.68;100.00;95481.28;619517;222;31796;-70
2022/08/01 03:52:12;;;;;;;1.60;1.50;;;17.70;1.40;;;18.71;100.00;95487.30;647956;212;31551;-71
2022/08/01 03:54:57;;;;;;;2.17;1.67;;;17.70;1.40;;;18.79;100.00;95495.91;645613;212;31562;-70
2022/08/01 03:57:39;;;;;;;1.42;1.30;;;17.80;1.40;;;18.82;100.00;95490.51;648712;216;31520;-70
2022/08/01 04:00:24;;;;;;;1.23;1.12;;;17.90;1.40;;;18.88;100.00;95498.55;645384;216;32098;-70
2022/08/01 04:03:05;;;;;;;1.10;1.00;;;18.00;1.40;;;18.85;100.00;95500.73;619929;222;31837;-70
2022/08/01 04:05:47;;;;;;;1.42;1.33;;;17.90;1.40;;;18.83;100.00;95498.71;650507;216;32202;-70
2022/08/01 04:08:37;;;;;;;1.60;1.23;;;17.90;1.40;;;18.86;100.00;95503.53;646434;216;31524;-70
2022/08/01 04:13:53;;;;;;;1.10;1.00;;;17.90;1.40;;;18.76;100.00;95504.03;651868;216;31512;-70
2022/08/01 04:16:35;;;;;;;1.50;1.40;;;17.80;1.40;;;18.69;100.00;95507.28;645372;217;31573;-71
2022/08/01 04:19:20;;;;;;;1.20;1.10;;;17.70;1.40;;;18.70;100.00;95507.98;647470;212;33622;-71
2022/08/01 04:22:02;;;;;;;3.20;1.35;;;17.80;1.40;;;18.84;100.00;95512.27;650438;216;31864;-70
2022/08/01 04:24:48;;;;;;;1.60;1.33;;;17.90;1.40;;;18.87;100.00;95514.63;646142;216;31581;-72
2022/08/01 04:27:29;;;;;;;1.25;1.15;;;18.00;1.40;;;18.75;100.00;95514.34;645698;216;31589;-71
2022/08/01 04:30:12;;;;;;;1.20;1.10;;;17.80;1.40;;;18.80;100.00;95515.69;633030;217;31725;-71
2022/08/01 04:32:54;;;;;;;1.27;1.10;;;17.80;1.40;;;18.92;100.00;95518.38;649881;212;31635;-70
2022/08/01 04:35:51;;;;;;;3.17;1.08;;;18.00;1.40;;;18.91;100.00;95520.72;652184;216;31597;-70
2022/08/01 04:38:33;;;;;;;1.70;1.27;;;18.00;1.40;;;18.94;100.00;95520.31;646034;216;31642;-70
2022/08/01 04:41:14;;;;;;;1.65;1.02;;;17.90;1.40;;;18.87;100.00;95521.38;652258;216;42192;-70
2022/08/01 04:43:58;;;;;;;2.15;1.80;;;17.90;1.40;;;18.91;100.00;95526.16;644838;216;31834;-71
2022/08/01 04:46:38;;;;;;;1.50;1.10;;;17.90;1.40;;;18.84;100.00;95526.41;651560;212;31519;-70
2022/08/01 04:49:20;;;;;;;2.53;1.30;;;17.90;99.90;;;18.75;100.00;95528.30;645700;216;31581;-70
2022/08/01 04:52:06;;;;;;;1.58;1.35;;;17.80;1.40;;;18.84;100.00;95525.78;647584;212;32061;-71
2022/08/01 04:54:49;;;;;;;1.60;1.50;;;17.80;1.40;;;18.92;100.00;95527.98;649724;216;31665;-71
2022/08/01 05:00:13;;;;;;;1.90;1.30;;;18.00;1.40;;;18.99;100.00;95530.36;648580;212;32053;-70
2022/08/01 05:02:55;;;;;;;2.30;1.20;;;18.00;1.40;;;19.09;100.00;95533.25;650449;212;31800;-69
2022/08/01 05:05:37;;;;;;;1.08;0.80;;;18.10;1.40;;;19.26;100.00;95533.48;619404;226;31985;-70
2022/08/01 05:08:19;;;;;;;1.20;1.10;;;18.30;1.40;;;19.39;100.00;95533.83;647404;216;31532;-70
2022/08/01 05:11:06;;;;;;;1.37;1.27;;;18.50;1.40;;;19.57;100.00;95527.91;645422;216;31545;-70
2022/08/01 05:16:22;;;;;;;1.70;1.30;;;18.70;1.40;;;19.78;100.00;95533.87;641561;216;31620;-70
2022/08/01 05:19:03;;;;;;;1.55;1.37;;;18.80;1.40;;;19.94;100.00;95529.11;646999;216;31703;-70
2022/08/01 05:21:45;;;;;;;1.20;1.00;;;19.00;1.40;;;20.05;100.00;95531.38;646025;216;32123;-70
2022/08/01 05:24:28;;;;;;;1.53;1.40;;;19.10;1.40;;;20.15;100.00;95533.69;647081;216;31593;-70
2022/08/01 05:27:09;;;;;;;1.42;1.33;;;19.20;1.40;;;20.26;100.00;95537.40;646998;212;42160;-70
2022/08/01 05:29:51;;;;;;;2.60;1.10;;;19.30;1.40;;;20.29;100.00;95540.18;644943;215;31509;-70
2022/08/01 05:32:36;;;;;;;1.40;1.20;;;19.30;1.40;;;20.23;100.00;95543.07;654564;216;42109;-71
2022/08/01 05:35:52;;;;;;;1.30;1.20;;;19.30;1.40;;;20.26;100.00;95545.41;649979;212;31757;-71
2022/08/01 05:38:34;;;;;;;1.50;1.40;;;19.40;1.40;;;20.30;100.00;95544.06;644917;216;31547;-69
2022/08/01 05:41:15;;;;;;;1.83;1.15;;;19.40;1.40;;;20.27;100.00;95550.23;648396;212;42886;-71
2022/08/01 05:43:57;;;;;;;1.20;1.10;;;19.30;1.40;;;20.29;100.00;95553.03;645409;216;33901;-69
2022/08/01 05:46:39;;;;;;;1.30;1.20;;;19.30;1.40;;;20.20;100.00;95553.45;645876;216;42130;-69
2022/08/01 05:49:21;;;;;;;2.45;1.40;;;19.30;1.40;;;20.19;100.00;95550.94;645608;212;42144;-69
2022/08/01 05:52:02;;;;;;;1.40;1.20;;;19.30;1.40;;;20.14;100.00;95556.36;646384;216;42217;-69
2022/08/01 05:54:47;;;;;;;1.42;1.20;;;19.10;1.40;;;20.08;100.00;95551.45;641004;218;42164;-70
2022/08/01 05:57:29;;;;;;;3.70;1.30;;;19.00;1.40;;;20.02;100.00;95554.84;647078;216;31572;-72
2022/08/01 06:00:15;;;;;;;1.50;1.30;;;19.10;1.40;;;20.13;100.00;95555.54;645779;212;42167;-71
2022/08/01 06:02:56;;;;;;;7.30;1.58;;;19.30;1.40;;;20.31;100.00;95556.41;619665;226;32193;-69
2022/08/01 06:05:38;;;;;;;1.80;1.10;;;19.40;1.40;;;20.53;100.00;95556.61;650688;216;31573;-70
2022/08/01 06:08:20;;;;;;;1.75;1.12;;;19.60;1.40;;;20.68;100.00;95555.19;649630;216;42701;-70
2022/08/01 06:11:01;;;;;;;1.52;1.25;;;19.70;1.40;;;20.83;100.00;95560.59;648678;212;31651;-70
2022/08/01 06:13:43;;;;;;;1.33;0.93;;;19.80;1.40;;;20.96;100.00;95562.11;645274;216;31465;-70
2022/08/01 06:16:25;;;;;;;1.67;1.40;;;19.90;1.40;;;21.08;100.00;95560.98;648725;216;31456;-70
2022/08/01 06:19:11;;;;;;;1.87;1.00;;;20.10;1.40;;;21.16;100.00;95562.07;647210;216;31671;-70
2022/08/01 06:21:54;;;;;;;2.00;1.50;;;20.20;1.40;;;21.25;100.00;95565.63;646109;212;31579;-69
2022/08/01 06:24:36;;;;;;;1.52;1.42;;;20.20;1.40;;;21.28;100.00;95568.95;646941;216;31491;-70
2022/08/01 06:27:20;;;;;;;1.30;1.20;;;20.20;1.40;;;21.47;100.00;95565.22;645850;212;32658;-70
2022/08/01 06:30:02;;;;;;;2.10;1.10;;;20.40;1.40;;;21.54;100.00;95569.83;646850;212;32143;-71
2022/08/01 06:32:47;;;;;;;1.50;1.10;;;20.60;1.40;;;21.60;100.00;95569.64;647378;216;31721;-69
2022/08/01 06:35:51;;;;;;;1.30;1.00;;;20.60;1.40;;;21.67;100.00;95573.97;649212;216;32017;-68
2022/08/01 06:38:33;;;;;;;1.90;1.40;;;20.70;1.40;;;21.76;100.00;95570.47;645539;212;42161;-69
2022/08/01 06:41:16;;;;;;;1.70;1.52;;;20.70;1.40;;;21.92;100.00;95572.80;646499;212;31582;-69
2022/08/01 06:43:59;;;;;;;2.83;1.12;;;20.80;1.40;;;22.00;100.00;95573.98;619386;225;31866;-69
2022/08/01 06:46:40;;;;;;;1.90;1.20;;;20.90;1.40;;;22.08;100.00;95572.34;647393;216;32070;-70
2022/08/01 06:49:22;;;;;;;1.20;1.10;;;21.00;1.40;;;22.20;100.00;95571.08;619769;226;31904;-69
2022/08/01 06:52:05;;;;;;;1.50;1.30;;;21.10;1.40;;;22.30;100.00;95569.55;646412;212;31576;-69
2022/08/01 06:54:46;;;;;;;1.45;1.15;;;21.20;1.40;;;22.31;100.00;95565.34;647852;212;32035;-69
2022/08/01 06:57:28;;;;;;;2.03;1.25;;;21.20;99.90;;;22.44;100.00;95567.84;647099;216;31538;-70
2022/08/01 07:00:12;;;;;;;2.67;1.62;;;21.30;1.40;;;22.40;100.00;95562.25;645845;216;31529;-69
2022/08/01 07:05:30;;;;;;;1.95;1.77;;;21.50;1.40;;;22.47;100.00;95567.84;648398;212;32081;-69
2022/08/01 07:08:10;;;;;;;1.27;1.05;;;21.30;1.40;;;22.50;100.00;95572.39;647184;212;31548;-70
2022/08/01 07:10:52;;;;;;;0.93;0.93;;;21.40;1.40;;;22.53;100.00;95567.55;647294;216;31873;-70
2022/08/01 07:13:34;;;;;;;1.50;1.20;;;21.40;1.40;;;22.49;100.00;95567.28;646552;216;31696;-68
2022/08/01 07:16:19;;;;;;;3.50;1.20;;;21.40;1.40;;;22.63;100.00;95568.82;634005;212;32714;-70
2022/08/01 07:19:01;;;;;;;2.60;1.40;;;21.60;1.40;;;22.73;100.00;95569.13;645646;212;31650;-69
2022/08/01 07:21:42;;;;;;;1.20;0.90;;;21.70;1.40;;;22.63;100.00;95566.63;648830;216;31953;-69
2022/08/01 07:24:25;;;;;;;1.43;1.33;;;21.50;1.40;;;22.72;100.00;95565.37;645455;216;31523;-69
2022/08/01 07:27:07;;;;;;;2.28;1.60;;;21.60;1.40;;;22.81;100.00;95566.86;619664;222;32167;-70
2022/08/01 07:29:50;;;;;;;1.17;1.00;;;21.80;1.40;;;22.95;100.00;95563.66;645168;212;31531;-71
2022/08/01 07:32:31;;;;;;;2.10;1.30;;;21.90;1.40;;;23.02;100.00;95555.99;616800;226;32059;-69
2022/08/01 07:35:55;;;;;;;1.30;1.20;;;22.00;1.40;;;22.96;100.00;95561.92;648841;216;31550;-70
2022/08/01 07:38:36;;;;;;;1.60;1.35;;;22.00;1.40;;;22.99;100.00;95551.85;649403;212;31495;-69
2022/08/01 07:41:18;;;;;;;1.70;1.23;;;22.00;1.40;;;23.06;99.61;95559.70;648937;212;32038;-69
2022/08/01 07:44:00;;;;;;;2.05;1.40;;;22.00;1.40;;;23.19;100.00;95554.22;647459;212;31536;-69
2022/08/01 07:46:45;;;;;;;1.60;1.27;;;22.10;1.40;;;23.26;99.94;95555.30;648299;216;32257;-72
2022/08/01 07:49:27;;;;;;;2.10;1.90;;;22.20;1.40;;;23.33;99.11;95552.66;644434;212;31634;-71
2022/08/01 07:52:12;;;;;;;2.10;1.90;;;22.20;1.40;;;23.47;99.92;95552.80;647063;212;32180;-71
2022/08/01 07:54:56;;;;;;;1.52;1.20;;;22.30;1.40;;;23.68;100.00;95553.48;648567;212;31591;-71
2022/08/01 07:57:39;;;;;;;1.50;1.00;;;22.60;1.40;;;23.59;98.44;95555.35;645766;212;31559;-71
2022/08/01 08:02:58;;;;;;;1.90;1.70;;;22.40;1.40;;;23.70;98.80;95556.48;644275;212;31670;-71
2022/08/01 08:05:41;;;;;;;2.40;1.83;;;22.50;1.40;;;23.76;97.21;95556.83;647032;216;31495;-72
2022/08/01 08:08:23;;;;;;;2.80;1.80;;;22.60;1.40;;;23.95;99.51;95552.64;646822;212;31544;-72
2022/08/01 08:11:08;;;;;;;1.30;1.15;;;22.80;1.40;;;23.98;96.76;95554.38;645153;212;31510;-70
2022/08/01 08:13:50;;;;;;;1.58;1.30;;;22.80;1.40;;;23.89;97.01;95555.75;646434;212;31498;-69
2022/08/01 08:16:32;;;;;;;1.67;1.20;;;22.90;1.40;;;23.86;96.95;95552.52;646277;216;32030;-71
2022/08/01 08:19:13;;;;;;;1.52;1.42;;;22.90;1.40;;;24.04;97.19;95550.77;618941;223;31845;-69
2022/08/01 08:21:56;;;;;;;2.10;1.37;;;23.00;1.40;;;23.95;95.45;95549.98;645622;216;31556;-70
2022/08/01 08:24:38;;;;;;;1.67;1.30;;;22.90;1.40;;;24.18;96.32;95547.95;645735;212;42253;-71
2022/08/01 08:27:20;;;;;;;1.90;1.50;;;23.10;1.40;;;24.28;95.21;95544.49;646354;212;43020;-70
2022/08/01 08:30:02;;;;;;;2.12;1.30;;;23.10;1.40;;;24.35;95.04;95551.33;645616;212;31569;-70
2022/08/01 08:32:43;;;;;;;1.77;1.60;;;23.30;1.40;;;24.42;96.10;95544.52;646538;216;32260;-70
2022/08/01 08:35:54;;;;;;;1.40;1.30;;;23.60;1.40;;;24.47;94.77;95545.88;646974;216;31550;-70
2022/08/01 08:41:10;;;;;;;3.30;1.30;;;23.50;1.40;;;24.74;94.32;95547.20;646233;212;42124;-69
2022/08/01 08:43:53;;;;;;;1.10;1.00;;;23.70;1.40;;;24.92;95.09;95549.75;619559;222;33105;-70
2022/08/01 08:46:40;;;;;;;1.50;1.40;;;24.00;1.40;;;24.97;89.43;95545.47;619762;222;31945;-71
2022/08/01 08:49:23;;;;;;;1.40;1.30;;;23.90;1.40;;;24.84;91.27;95549.08;646417;212;31645;-70
2022/08/01 08:52:04;;;;;;;1.10;1.00;;;23.80;1.40;;;24.89;89.39;95543.97;646177;212;31620;-70
2022/08/01 08:54:46;;;;;;;3.05;1.70;;;23.80;1.40;;;24.76;89.47;95543.93;646358;216;31500;-74
2022/08/01 08:57:28;;;;;;;1.50;1.30;;;23.90;1.40;;;25.02;89.72;95544.22;645958;216;31745;-69
2022/08/01 09:00:11;;;;;;;3.20;1.30;;;24.10;1.40;;;25.12;90.70;95542.14;645328;216;31506;-70
2022/08/01 09:02:55;;;;;;;1.60;1.10;;;24.20;1.40;;;25.32;88.76;95540.98;646411;216;31506;-70
2022/08/01 09:05:35;;;;;;;1.55;1.17;;;24.40;1.40;;;25.62;88.32;95538.84;645858;216;31496;-70
2022/08/01 09:08:16;;;;;;;1.70;0.95;;;24.70;1.40;;;25.58;83.00;95536.25;644950;216;31675;-70
2022/08/01 09:10:58;;;;;;;1.20;1.10;;;24.60;1.40;;;25.92;82.71;95534.16;646360;212;31525;-70
2022/08/01 09:13:43;;;;;;;1.17;0.90;;;24.80;1.40;;;26.01;83.89;95535.94;645795;212;31958;-70
2022/08/01 09:16:25;;;;;;;1.20;1.10;;;25.00;1.40;;;25.99;81.64;95546.90;610672;222;32048;-70
2022/08/01 09:19:10;;;;;;;1.30;1.20;;;25.00;1.40;;;25.93;82.74;95548.59;647469;216;31480;-70
2022/08/01 09:21:57;;;;;;;3.62;1.08;;;25.00;1.40;;;26.68;80.08;95535.23;618817;226;31905;-70
2022/08/01 09:24:40;;;;;;;1.77;1.23;;;27.10;1.40;;;27.61;76.10;95537.28;645627;216;31555;-71
2022/08/01 09:27:25;;;;;;;2.00;0.88;;;29.10;1.40;;;28.56;71.72;95535.32;646237;216;31528;-70
2022/08/01 09:30:12;;;;;;;1.50;0.90;;;30.30;1.40;;;28.40;68.37;95533.12;647393;216;31630;-70
2022/08/01 09:32:57;;;;;;;0.90;0.80;;;29.40;1.40;;;28.98;70.12;95534.12;647680;212;31546;-70
2022/08/01 09:35:56;;;;;;;1.12;0.80;;;29.70;1.40;;;28.78;68.57;95531.48;646550;216;31507;-70
2022/08/01 09:38:39;;;;;;;1.00;0.90;;;28.60;99.90;;;28.88;66.24;95527.94;645543;212;31533;-71
2022/08/01 09:41:30;;;;;;;1.10;0.80;;;29.40;99.90;;;28.89;65.90;95520.47;645906;216;32169;-70
2022/08/01 09:44:11;;;;;;;1.30;1.20;;;29.60;99.90;;;28.94;66.63;95525.02;646850;216;31887;-70
2022/08/01 09:49:33;;;;;;;1.60;1.00;;;30.80;99.90;;;30.71;61.01;95520.08;647266;216;31516;-72
2022/08/01 09:52:15;;;;;;;0.80;0.80;;;30.70;99.90;;;30.77;58.73;95520.95;618362;226;32000;-71
2022/08/01 09:54:57;;;;;;;1.50;1.00;;;31.40;99.90;;;31.09;60.79;95525.97;648184;216;31955;-70
2022/08/01 09:57:39;;;;;;;1.10;1.00;;;31.30;99.90;;;30.77;58.83;95526.69;645687;212;31481;-70
2022/08/01 10:00:20;;;;;;;1.10;0.70;;;30.70;99.90;;;31.87;57.74;95519.63;645800;216;31562;-70
2022/08/01 10:03:21;;;;;;;1.20;1.08;;;31.90;99.90;;;32.15;55.16;95511.48;647328;216;31673;-70
2022/08/01 10:06:02;;;;;;;1.00;0.80;;;32.00;99.90;;;32.46;54.25;95512.73;647617;216;31499;-70
2022/08/01 10:08:47;;;;;;;0.85;0.85;;;32.20;99.90;;;32.27;53.37;95510.92;646556;216;31487;-70
2022/08/01 10:11:28;;;;;;;1.00;0.90;;;32.20;99.90;;;33.92;50.75;95502.50;646475;212;31511;-71
2022/08/01 10:14:14;;;;;;;1.35;1.10;;;33.60;99.90;;;32.07;53.23;95508.14;647035;216;31511;-71
2022/08/01 10:16:55;;;;;;;2.30;1.20;;;29.80;99.90;;;31.97;54.05;95504.55;646813;212;31864;-71
2022/08/01 10:19:38;;;;;;;1.08;0.98;;;31.10;99.90;;;32.40;53.16;95501.41;646914;216;31549;-71
2022/08/01 10:22:20;;;;;;;2.47;1.00;;;31.70;99.90;;;32.72;53.73;95500.70;645873;216;31559;-72
2022/08/01 10:25:02;;;;;;;1.15;1.05;;;32.60;99.90;;;31.97;52.08;95508.11;647206;216;31783;-71
2022/08/01 10:27:45;;;;;;;1.05;0.90;;;30.90;99.90;;;32.60;51.52;95502.72;646154;212;31597;-70
2022/08/01 10:30:25;;;;;;;1.02;0.93;;;31.40;99.90;;;30.22;55.65;95506.91;645458;216;31508;-70
2022/08/01 10:35:54;;;;;;;1.70;1.10;;;29.20;99.90;;;30.83;55.73;95498.06;647164;216;31610;-71
2022/08/01 10:38:36;;;;;;;1.37;1.00;;;29.70;1.40;;;32.20;54.52;95489.57;647341;216;31536;-71
2022/08/01 10:41:22;;;;;;;1.90;0.90;;;32.10;99.90;;;34.66;52.33;95484.06;646426;216;31521;-70
2022/08/01 10:44:04;;;;;;;1.23;1.12;;;34.40;99.90;;;36.69;47.94;95481.42;646523;216;31639;-71
2022/08/01 10:46:46;;;;;;;1.77;1.20;;;34.50;99.90;;;33.86;48.90;95479.56;646138;216;31595;-71
2022/08/01 10:52:02;;;;;;;1.10;0.90;;;30.20;99.90;;;31.59;53.48;95487.17;645914;216;31972;-71
2022/08/01 10:54:43;;;;;;;1.62;1.30;;;28.90;99.90;;;31.96;52.58;95484.40;618596;222;32051;-71
2022/08/01 10:57:25;;;;;;;2.30;1.00;;;29.50;99.90;;;34.22;49.55;95474.19;642189;216;31822;-70
2022/08/01 11:00:08;;;;;;;1.20;1.10;;;31.20;99.90;;;32.23;52.54;95480.59;646110;216;31649;-70
2022/08/01 11:03:00;;;;;;;1.17;0.75;;;30.80;99.90;;;33.25;50.41;95475.55;646425;212;32334;-71
2022/08/01 11:05:40;;;;;;;1.10;1.00;;;32.20;99.90;;;30.50;54.47;95480.06;647114;216;32404;-70
2022/08/01 11:08:22;;;;;;;2.70;1.10;;;27.60;99.90;;;29.82;55.58;95479.53;647059;216;31521;-72
2022/08/01 11:11:05;;;;;;;2.28;0.88;;;27.60;99.90;;;30.51;55.41;95477.89;646332;216;31528;-70
2022/08/01 11:14:01;;;;;;;1.35;1.10;;;30.00;99.90;;;32.09;51.42;95469.68;644709;212;31677;-70
2022/08/01 11:16:43;;;;;;;1.40;0.80;;;31.80;99.90;;;30.95;53.49;95471.85;646597;212;31845;-70
2022/08/01 11:19:25;;;;;;;1.15;1.05;;;29.90;99.90;;;32.75;53.12;95462.62;645587;212;31561;-71
2022/08/01 11:22:07;;;;;;;1.20;1.10;;;31.70;99.90;;;33.99;49.13;95463.71;645833;216;31700;-71
2022/08/01 11:27:30;;;;;;;0.90;0.75;;;32.20;99.90;;;34.27;46.57;95456.31;619163;226;31966;-70
2022/08/01 11:30:27;;;;;;;0.80;0.80;;;32.60;99.90;;;35.52;45.52;95457.28;645749;216;31650;-71
2022/08/01 11:38:34;;;;;;;1.10;1.00;;;31.80;99.90;;;33.85;46.50;95450.27;646959;212;31499;-70
2022/08/01 11:41:23;;;;;;;4.10;1.00;;;31.70;99.90;;;34.23;46.38;95439.61;618030;225;31806;-70
2022/08/01 11:44:06;;;;;;;1.33;1.23;;;32.50;99.90;;;33.48;47.46;95446.88;647520;216;42246;-71
2022/08/01 11:46:55;;;;;;;0.98;0.77;;;31.10;99.90;;;33.83;47.67;95448.45;645570;216;31889;-71
2022/08/01 11:49:49;;;;;;;1.30;0.80;;;32.00;99.90;;;33.98;45.90;95454.34;645456;216;31657;-70
2022/08/01 11:52:32;;;;;;;2.00;0.80;;;32.70;99.90;;;34.58;43.90;95441.59;618976;226;31857;-70
2022/08/01 11:55:13;;;;;;;0.70;0.70;;;32.20;99.90;;;35.55;43.21;95427.79;647555;212;31661;-71
2022/08/01 11:58:01;;;;;;;0.55;0.55;;;32.90;99.90;;;34.97;43.89;95436.95;645837;212;42163;-70
2022/08/01 12:00:45;;;;;;;0.90;0.80;;;33.00;99.90;;;33.95;44.31;95447.97;646531;212;31578;-71
2022/08/01 12:03:28;;;;;;;2.10;0.90;;;31.30;1.40;;;34.41;43.77;95437.47;646205;212;31526;-71
2022/08/01 12:06:10;;;;;;;2.20;0.80;;;32.60;99.90;;;35.28;42.26;95443.25;646253;212;32455;-70